sensor_id;sensor_type;location;lat;lon;timestamp;temperature;humidity
48604;DHT22;32708;51.212;6.788;2023-02-12T00:01:22;9.30;99.90
48604;DHT22;32708;51.212;6.788;2023-02-12T00:03:49;9.30;99.90
48604;DHT22;32708;51.212;6.788;2023-02-12T00:06:15;9.20;99.90
48604;DHT22;32708;51.212;6.788;2023-02-12T00:08:42;9.30;99.90
48604;DHT22;32708;51.212;6.788;2023-02-12T00:11:11;9.30;99.90
48604;DHT22;32708;51.212;6.788;2023-02-12T00:13:38;9.20;99.90
48604;DHT22;32708;51.212;6.788;2023-02-12T00:16:10;9.20;99.90
48604;DHT22;32708;51.212;6.788;2023-02-12T00:18:37;9.20;99.90
48604;DHT22;32708;51.212;6.788;2023-02-12T00:21:04;9.30;99.90
48604;DHT22;32708;51.212;6.788;2023-02-12T00:23:31;9.20;99.90
48604;DHT22;32708;51.212;6.788;2023-02-12T00:25:57;9.20;99.90
48604;DHT22;32708;51.212;6.788;2023-02-12T00:28:23;9.20;99.90
48604;DHT22;32708;51.212;6.788;2023-02-12T00:30:49;9.20;99.90
48604;DHT22;32708;51.212;6.788;2023-02-12T00:33:15;9.10;99.90
48604;DHT22;32708;51.212;6.788;2023-02-12T00:35:41;9.10;99.90
48604;DHT22;32708;51.212;6.788;2023-02-12T00:38:07;9.10;99.90
48604;DHT22;32708;51.212;6.788;2023-02-12T00:40:33;9.10;99.90
48604;DHT22;32708;51.212;6.788;2023-02-12T00:42:59;9.20;99.90
48604;DHT22;32708;51.212;6.788;2023-02-12T00:45:25;9.20;99.90
48604;DHT22;32708;51.212;6.788;2023-02-12T00:47:51;9.10;99.90
48604;DHT22;32708;51.212;6.788;2023-02-12T00:50:17;9.20;99.90
48604;DHT22;32708;51.212;6.788;2023-02-12T00:52:43;9.20;99.90
48604;DHT22;32708;51.212;6.788;2023-02-12T00:55:09;9.20;99.90
48604;DHT22;32708;51.212;6.788;2023-02-12T00:57:35;9.30;99.90
48604;DHT22;32708;51.212;6.788;2023-02-12T01:00:01;9.20;99.90
48604;DHT22;32708;51.212;6.788;2023-02-12T01:02:28;9.20;99.90
48604;DHT22;32708;51.212;6.788;2023-02-12T01:04:54;9.20;99.90
48604;DHT22;32708;51.212;6.788;2023-02-12T01:07:22;9.20;99.90
48604;DHT22;32708;51.212;6.788;2023-02-12T01:09:49;9.20;99.90
48604;DHT22;32708;51.212;6.788;2023-02-12T01:12:15;9.20;99.90
48604;DHT22;32708;51.212;6.788;2023-02-12T01:14:41;9.10;99.90
48604;DHT22;32708;51.212;6.788;2023-02-12T01:17:08;9.20;99.90
48604;DHT22;32708;51.212;6.788;2023-02-12T01:19:34;9.20;99.90
48604;DHT22;32708;51.212;6.788;2023-02-12T01:22:00;9.20;99.90
48604;DHT22;32708;51.212;6.788;2023-02-12T01:24:26;9.10;99.90
48604;DHT22;32708;51.212;6.788;2023-02-12T01:26:52;9.20;99.90
48604;DHT22;32708;51.212;6.788;2023-02-12T01:29:18;9.20;99.90
48604;DHT22;32708;51.212;6.788;2023-02-12T01:31:44;9.20;99.90
48604;DHT22;32708;51.212;6.788;2023-02-12T01:34:10;9.20;99.90
48604;DHT22;32708;51.212;6.788;2023-02-12T01:36:38;9.10;99.90
48604;DHT22;32708;51.212;6.788;2023-02-12T01:39:05;9.10;99.90
48604;DHT22;32708;51.212;6.788;2023-02-12T01:41:34;9.10;99.90
48604;DHT22;32708;51.212;6.788;2023-02-12T01:44:10;9.10;99.90
48604;DHT22;32708;51.212;6.788;2023-02-12T01:46:38;9.10;99.90
48604;DHT22;32708;51.212;6.788;2023-02-12T01:49:09;8.90;99.90
48604;DHT22;32708;51.212;6.788;2023-02-12T01:51:36;9.00;99.90
48604;DHT22;32708;51.212;6.788;2023-02-12T01:54:08;9.20;99.90
48604;DHT22;32708;51.212;6.788;2023-02-12T01:56:35;9.10;99.90
48604;DHT22;32708;51.212;6.788;2023-02-12T01:59:02;9.20;99.90
48604;DHT22;32708;51.212;6.788;2023-02-12T02:01:32;9.30;99.90
48604;DHT22;32708;51.212;6.788;2023-02-12T02:04:09;9.20;99.90
48604;DHT22;32708;51.212;6.788;2023-02-12T02:07:12;9.20;99.90
48604;DHT22;32708;51.212;6.788;2023-02-12T02:09:39;9.20;99.90
48604;DHT22;32708;51.212;6.788;2023-02-12T02:12:06;9.10;99.90
48604;DHT22;32708;51.212;6.788;2023-02-12T02:14:54;9.10;99.90
48604;DHT22;32708;51.212;6.788;2023-02-12T02:20:37;9.10;99.90
48604;DHT22;32708;51.212;6.788;2023-02-12T02:28:58;9.10;99.90
48604;DHT22;32708;51.212;6.788;2023-02-12T02:32:07;9.10;99.90
48604;DHT22;32708;51.212;6.788;2023-02-12T02:37:48;9.00;99.90
48604;DHT22;32708;51.212;6.788;2023-02-12T02:40:25;8.90;99.90
48604;DHT22;32708;51.212;6.788;2023-02-12T02:43:05;9.00;99.90
48604;DHT22;32708;51.212;6.788;2023-02-12T02:45:50;9.10;99.90
48604;DHT22;32708;51.212;6.788;2023-02-12T02:48:26;9.10;99.90
48604;DHT22;32708;51.212;6.788;2023-02-12T02:51:08;9.10;99.90
48604;DHT22;32708;51.212;6.788;2023-02-12T02:53:41;9.10;99.90
48604;DHT22;32708;51.212;6.788;2023-02-12T02:56:16;9.00;99.90
48604;DHT22;32708;51.212;6.788;2023-02-12T02:58:54;9.10;99.90
48604;DHT22;32708;51.212;6.788;2023-02-12T03:01:31;9.00;99.90
48604;DHT22;32708;51.212;6.788;2023-02-12T03:04:05;9.00;99.90
48604;DHT22;32708;51.212;6.788;2023-02-12T03:09:40;9.00;99.90
48604;DHT22;32708;51.212;6.788;2023-02-12T03:12:25;9.00;99.90
48604;DHT22;32708;51.212;6.788;2023-02-12T03:15:03;8.90;99.90
48604;DHT22;32708;51.212;6.788;2023-02-12T03:17:44;8.90;99.90
48604;DHT22;32708;51.212;6.788;2023-02-12T03:20:27;9.00;99.90
48604;DHT22;32708;51.212;6.788;2023-02-12T03:23:12;9.10;99.90
48604;DHT22;32708;51.212;6.788;2023-02-12T03:28:19;9.10;99.90
48604;DHT22;32708;51.212;6.788;2023-02-12T03:34:16;9.10;99.90
48604;DHT22;32708;51.212;6.788;2023-02-12T03:37:11;9.00;99.90
48604;DHT22;32708;51.212;6.788;2023-02-12T03:40:16;9.20;99.90
48604;DHT22;32708;51.212;6.788;2023-02-12T03:42:58;9.00;99.90
48604;DHT22;32708;51.212;6.788;2023-02-12T03:45:37;8.90;99.90
48604;DHT22;32708;51.212;6.788;2023-02-12T03:48:18;9.00;99.90
48604;DHT22;32708;51.212;6.788;2023-02-12T03:53:28;8.70;99.90
48604;DHT22;32708;51.212;6.788;2023-02-12T03:56:09;8.60;99.90
48604;DHT22;32708;51.212;6.788;2023-02-12T03:58:39;8.60;99.90
48604;DHT22;32708;51.212;6.788;2023-02-12T04:01:07;8.70;99.90
48604;DHT22;32708;51.212;6.788;2023-02-12T04:03:33;8.70;99.90
48604;DHT22;32708;51.212;6.788;2023-02-12T04:05:59;8.80;99.90
48604;DHT22;32708;51.212;6.788;2023-02-12T04:08:27;8.70;99.90
48604;DHT22;32708;51.212;6.788;2023-02-12T04:16:51;8.70;99.90
48604;DHT22;32708;51.212;6.788;2023-02-12T04:23:06;8.70;99.90
48604;DHT22;32708;51.212;6.788;2023-02-12T04:25:40;8.70;99.90
48604;DHT22;32708;51.212;6.788;2023-02-12T04:28:41;8.60;99.90
48604;DHT22;32708;51.212;6.788;2023-02-12T04:31:19;8.50;99.90
48604;DHT22;32708;51.212;6.788;2023-02-12T04:34:20;8.50;99.90
48604;DHT22;32708;51.212;6.788;2023-02-12T04:36:58;8.40;99.90
48604;DHT22;32708;51.212;6.788;2023-02-12T04:39:29;8.60;99.90
48604;DHT22;32708;51.212;6.788;2023-02-12T04:42:00;8.60;99.90
48604;DHT22;32708;51.212;6.788;2023-02-12T04:44:29;8.60;99.90
48604;DHT22;32708;51.212;6.788;2023-02-12T04:46:56;8.40;99.90
48604;DHT22;32708;51.212;6.788;2023-02-12T04:49:23;8.40;99.90
48604;DHT22;32708;51.212;6.788;2023-02-12T04:51:50;8.50;99.90
48604;DHT22;32708;51.212;6.788;2023-02-12T04:54:18;8.50;99.90
48604;DHT22;32708;51.212;6.788;2023-02-12T04:56:45;8.60;99.90
48604;DHT22;32708;51.212;6.788;2023-02-12T04:59:12;8.60;99.90
48604;DHT22;32708;51.212;6.788;2023-02-12T05:01:39;8.50;99.90
48604;DHT22;32708;51.212;6.788;2023-02-12T05:04:06;8.50;99.90
48604;DHT22;32708;51.212;6.788;2023-02-12T05:06:36;8.40;99.90
48604;DHT22;32708;51.212;6.788;2023-02-12T05:09:04;8.40;99.90
48604;DHT22;32708;51.212;6.788;2023-02-12T05:11:30;8.50;99.90
48604;DHT22;32708;51.212;6.788;2023-02-12T05:13:57;8.60;99.90
48604;DHT22;32708;51.212;6.788;2023-02-12T05:16:24;8.70;99.90
48604;DHT22;32708;51.212;6.788;2023-02-12T05:18:50;8.60;99.90
48604;DHT22;32708;51.212;6.788;2023-02-12T05:21:16;8.60;99.90
48604;DHT22;32708;51.212;6.788;2023-02-12T05:23:43;8.70;99.90
48604;DHT22;32708;51.212;6.788;2023-02-12T05:26:15;8.70;99.90
48604;DHT22;32708;51.212;6.788;2023-02-12T05:28:42;8.60;99.90
48604;DHT22;32708;51.212;6.788;2023-02-12T05:31:10;8.60;99.90
48604;DHT22;32708;51.212;6.788;2023-02-12T05:33:37;8.70;99.90
48604;DHT22;32708;51.212;6.788;2023-02-12T05:36:05;8.60;99.90
48604;DHT22;32708;51.212;6.788;2023-02-12T05:38:33;8.50;99.90
48604;DHT22;32708;51.212;6.788;2023-02-12T05:41:04;8.60;99.90
48604;DHT22;32708;51.212;6.788;2023-02-12T05:43:31;8.50;99.90
48604;DHT22;32708;51.212;6.788;2023-02-12T05:45:58;8.50;99.90
48604;DHT22;32708;51.212;6.788;2023-02-12T05:48:25;8.70;99.90
48604;DHT22;32708;51.212;6.788;2023-02-12T05:50:52;8.70;99.90
48604;DHT22;32708;51.212;6.788;2023-02-12T05:53:18;8.50;99.90
48604;DHT22;32708;51.212;6.788;2023-02-12T05:55:44;8.60;99.90
48604;DHT22;32708;51.212;6.788;2023-02-12T05:58:09;8.70;99.90
48604;DHT22;32708;51.212;6.788;2023-02-12T06:00:35;8.50;99.90
48604;DHT22;32708;51.212;6.788;2023-02-12T06:03:02;8.50;99.90
48604;DHT22;32708;51.212;6.788;2023-02-12T06:05:28;8.50;99.90
48604;DHT22;32708;51.212;6.788;2023-02-12T06:07:54;8.60;99.90
48604;DHT22;32708;51.212;6.788;2023-02-12T06:10:20;8.70;99.90
48604;DHT22;32708;51.212;6.788;2023-02-12T06:12:46;8.70;99.90
48604;DHT22;32708;51.212;6.788;2023-02-12T06:15:12;8.80;99.90
48604;DHT22;32708;51.212;6.788;2023-02-12T06:17:38;8.90;99.90
48604;DHT22;32708;51.212;6.788;2023-02-12T06:20:04;9.00;99.90
48604;DHT22;32708;51.212;6.788;2023-02-12T06:22:30;8.90;99.90
48604;DHT22;32708;51.212;6.788;2023-02-12T06:24:56;8.90;99.90
48604;DHT22;32708;51.212;6.788;2023-02-12T06:27:22;8.90;99.90
48604;DHT22;32708;51.212;6.788;2023-02-12T06:29:48;8.80;99.90
48604;DHT22;32708;51.212;6.788;2023-02-12T06:32:14;8.80;99.90
48604;DHT22;32708;51.212;6.788;2023-02-12T06:34:40;8.70;99.90
48604;DHT22;32708;51.212;6.788;2023-02-12T06:37:06;8.70;99.90
48604;DHT22;32708;51.212;6.788;2023-02-12T06:39:32;8.50;99.90
48604;DHT22;32708;51.212;6.788;2023-02-12T06:41:58;8.50;99.90
48604;DHT22;32708;51.212;6.788;2023-02-12T06:44:24;8.50;99.90
48604;DHT22;32708;51.212;6.788;2023-02-12T06:46:50;8.60;99.90
48604;DHT22;32708;51.212;6.788;2023-02-12T06:49:16;8.70;99.90
48604;DHT22;32708;51.212;6.788;2023-02-12T06:51:42;8.70;99.90
48604;DHT22;32708;51.212;6.788;2023-02-12T06:54:13;8.70;99.90
48604;DHT22;32708;51.212;6.788;2023-02-12T06:56:39;8.60;99.90
48604;DHT22;32708;51.212;6.788;2023-02-12T06:59:05;8.60;99.90
48604;DHT22;32708;51.212;6.788;2023-02-12T07:01:31;8.90;99.90
48604;DHT22;32708;51.212;6.788;2023-02-12T07:04:00;8.70;99.90
48604;DHT22;32708;51.212;6.788;2023-02-12T07:06:28;8.70;99.90
48604;DHT22;32708;51.212;6.788;2023-02-12T07:08:55;8.60;99.90
48604;DHT22;32708;51.212;6.788;2023-02-12T07:11:23;8.60;99.90
48604;DHT22;32708;51.212;6.788;2023-02-12T07:13:50;8.60;99.90
48604;DHT22;32708;51.212;6.788;2023-02-12T07:16:16;8.70;99.90
48604;DHT22;32708;51.212;6.788;2023-02-12T07:18:43;8.70;99.90
48604;DHT22;32708;51.212;6.788;2023-02-12T07:21:11;8.70;99.90
48604;DHT22;32708;51.212;6.788;2023-02-12T07:23:38;8.70;99.90
48604;DHT22;32708;51.212;6.788;2023-02-12T07:26:11;8.70;99.90
48604;DHT22;32708;51.212;6.788;2023-02-12T07:28:38;8.70;99.90
48604;DHT22;32708;51.212;6.788;2023-02-12T07:31:09;8.70;99.90
48604;DHT22;32708;51.212;6.788;2023-02-12T07:33:36;8.80;99.90
48604;DHT22;32708;51.212;6.788;2023-02-12T07:36:04;8.90;99.90
48604;DHT22;32708;51.212;6.788;2023-02-12T07:38:31;8.80;99.90
48604;DHT22;32708;51.212;6.788;2023-02-12T07:41:28;8.80;99.90
48604;DHT22;32708;51.212;6.788;2023-02-12T07:44:00;8.90;99.90
48604;DHT22;32708;51.212;6.788;2023-02-12T07:46:30;8.80;99.90
48604;DHT22;32708;51.212;6.788;2023-02-12T07:48:59;8.70;99.90
48604;DHT22;32708;51.212;6.788;2023-02-12T07:51:26;8.50;99.90
48604;DHT22;32708;51.212;6.788;2023-02-12T07:53:53;8.50;99.90
48604;DHT22;32708;51.212;6.788;2023-02-12T07:56:25;8.50;99.90
48604;DHT22;32708;51.212;6.788;2023-02-12T07:58:55;8.60;99.90
48604;DHT22;32708;51.212;6.788;2023-02-12T08:01:24;8.70;99.90
48604;DHT22;32708;51.212;6.788;2023-02-12T08:04:00;9.10;99.90
48604;DHT22;32708;51.212;6.788;2023-02-12T08:06:29;9.00;99.90
48604;DHT22;32708;51.212;6.788;2023-02-12T08:08:59;9.00;99.90
48604;DHT22;32708;51.212;6.788;2023-02-12T08:11:27;9.20;99.90
48604;DHT22;32708;51.212;6.788;2023-02-12T08:13:54;9.20;99.90
48604;DHT22;32708;51.212;6.788;2023-02-12T08:16:24;9.10;99.90
48604;DHT22;32708;51.212;6.788;2023-02-12T08:18:51;9.10;99.90
48604;DHT22;32708;51.212;6.788;2023-02-12T08:21:19;9.00;99.90
48604;DHT22;32708;51.212;6.788;2023-02-12T08:23:47;9.00;99.90
48604;DHT22;32708;51.212;6.788;2023-02-12T08:26:30;9.10;99.90
48604;DHT22;32708;51.212;6.788;2023-02-12T08:29:03;9.40;99.90
48604;DHT22;32708;51.212;6.788;2023-02-12T08:31:35;9.20;99.90
48604;DHT22;32708;51.212;6.788;2023-02-12T08:34:02;9.30;99.90
48604;DHT22;32708;51.212;6.788;2023-02-12T08:36:34;9.50;99.90
48604;DHT22;32708;51.212;6.788;2023-02-12T08:39:00;9.50;99.90
48604;DHT22;32708;51.212;6.788;2023-02-12T08:41:28;9.60;99.90
48604;DHT22;32708;51.212;6.788;2023-02-12T08:43:57;9.50;99.90
48604;DHT22;32708;51.212;6.788;2023-02-12T08:46:29;9.20;99.90
48604;DHT22;32708;51.212;6.788;2023-02-12T08:49:01;9.20;99.90
48604;DHT22;32708;51.212;6.788;2023-02-12T08:51:33;9.20;99.90
48604;DHT22;32708;51.212;6.788;2023-02-12T08:54:03;9.40;99.90
48604;DHT22;32708;51.212;6.788;2023-02-12T08:56:32;9.50;99.90
48604;DHT22;32708;51.212;6.788;2023-02-12T08:58:59;9.50;99.90
48604;DHT22;32708;51.212;6.788;2023-02-12T09:01:28;9.60;99.90
48604;DHT22;32708;51.212;6.788;2023-02-12T09:03:55;9.70;99.90
48604;DHT22;32708;51.212;6.788;2023-02-12T09:06:23;9.80;99.90
48604;DHT22;32708;51.212;6.788;2023-02-12T09:08:50;10.00;99.90
48604;DHT22;32708;51.212;6.788;2023-02-12T09:11:20;9.90;99.90
48604;DHT22;32708;51.212;6.788;2023-02-12T09:14:00;9.90;99.90
48604;DHT22;32708;51.212;6.788;2023-02-12T09:16:27;9.90;99.90
48604;DHT22;32708;51.212;6.788;2023-02-12T09:18:54;9.90;99.90
48604;DHT22;32708;51.212;6.788;2023-02-12T09:21:21;10.00;99.90
48604;DHT22;32708;51.212;6.788;2023-02-12T09:23:48;10.00;99.90
48604;DHT22;32708;51.212;6.788;2023-02-12T09:26:16;9.90;99.90
48604;DHT22;32708;51.212;6.788;2023-02-12T09:28:46;10.20;99.90
48604;DHT22;32708;51.212;6.788;2023-02-12T09:31:16;10.30;99.90
48604;DHT22;32708;51.212;6.788;2023-02-12T09:33:43;10.10;99.90
48604;DHT22;32708;51.212;6.788;2023-02-12T09:36:12;10.00;99.90
48604;DHT22;32708;51.212;6.788;2023-02-12T09:38:39;10.10;99.90
48604;DHT22;32708;51.212;6.788;2023-02-12T09:45:03;10.20;99.90
48604;DHT22;32708;51.212;6.788;2023-02-12T09:52:23;10.20;99.90
48604;DHT22;32708;51.212;6.788;2023-02-12T09:54:50;10.30;99.90
48604;DHT22;32708;51.212;6.788;2023-02-12T09:57:34;10.40;99.90
48604;DHT22;32708;51.212;6.788;2023-02-12T10:00:14;10.50;99.90
48604;DHT22;32708;51.212;6.788;2023-02-12T10:02:40;10.30;99.90
48604;DHT22;32708;51.212;6.788;2023-02-12T10:05:16;10.30;99.90
48604;DHT22;32708;51.212;6.788;2023-02-12T10:08:29;10.40;99.90
48604;DHT22;32708;51.212;6.788;2023-02-12T10:11:23;10.40;99.90
48604;DHT22;32708;51.212;6.788;2023-02-12T10:13:57;10.40;99.90
48604;DHT22;32708;51.212;6.788;2023-02-12T10:22:28;10.70;99.90
48604;DHT22;32708;51.212;6.788;2023-02-12T10:25:18;10.80;99.90
48604;DHT22;32708;51.212;6.788;2023-02-12T10:27:49;10.80;99.90
48604;DHT22;32708;51.212;6.788;2023-02-12T10:30:26;10.70;99.90
48604;DHT22;32708;51.212;6.788;2023-02-12T10:33:24;10.90;99.90
48604;DHT22;32708;51.212;6.788;2023-02-12T10:38:56;10.90;99.90
48604;DHT22;32708;51.212;6.788;2023-02-12T10:41:27;11.00;99.90
48604;DHT22;32708;51.212;6.788;2023-02-12T10:43:55;11.10;99.90
48604;DHT22;32708;51.212;6.788;2023-02-12T10:46:21;11.10;99.90
48604;DHT22;32708;51.212;6.788;2023-02-12T10:48:50;10.80;99.90
48604;DHT22;32708;51.212;6.788;2023-02-12T10:57:18;10.90;99.90
48604;DHT22;32708;51.212;6.788;2023-02-12T10:59:47;11.00;99.90
48604;DHT22;32708;51.212;6.788;2023-02-12T11:02:29;11.20;99.90
48604;DHT22;32708;51.212;6.788;2023-02-12T11:04:58;11.20;99.90
48604;DHT22;32708;51.212;6.788;2023-02-12T11:07:26;10.90;99.90
48604;DHT22;32708;51.212;6.788;2023-02-12T11:09:54;11.10;99.90
48604;DHT22;32708;51.212;6.788;2023-02-12T11:12:33;11.00;99.90
48604;DHT22;32708;51.212;6.788;2023-02-12T11:15:18;11.10;99.90
48604;DHT22;32708;51.212;6.788;2023-02-12T11:17:59;11.30;99.90
48604;DHT22;32708;51.212;6.788;2023-02-12T11:26:04;11.30;98.50
48604;DHT22;32708;51.212;6.788;2023-02-12T11:28:34;11.30;99.90
48604;DHT22;32708;51.212;6.788;2023-02-12T11:33:42;11.60;92.90
48604;DHT22;32708;51.212;6.788;2023-02-12T11:36:27;11.30;99.90
48604;DHT22;32708;51.212;6.788;2023-02-12T11:38:56;11.00;99.90
48604;DHT22;32708;51.212;6.788;2023-02-12T11:43:56;11.10;95.90
48604;DHT22;32708;51.212;6.788;2023-02-12T11:46:24;11.30;95.30
48604;DHT22;32708;51.212;6.788;2023-02-12T11:48:54;11.30;93.90
48604;DHT22;32708;51.212;6.788;2023-02-12T11:51:28;11.40;94.50
48604;DHT22;32708;51.212;6.788;2023-02-12T11:53:59;11.80;85.80
48604;DHT22;32708;51.212;6.788;2023-02-12T11:56:41;11.60;91.80
48604;DHT22;32708;51.212;6.788;2023-02-12T11:59:17;11.70;92.60
48604;DHT22;32708;51.212;6.788;2023-02-12T12:01:49;11.50;96.40
48604;DHT22;32708;51.212;6.788;2023-02-12T12:04:19;11.50;95.80
48604;DHT22;32708;51.212;6.788;2023-02-12T12:07:21;11.00;99.90
48604;DHT22;32708;51.212;6.788;2023-02-12T12:09:57;11.60;97.00
48604;DHT22;32708;51.212;6.788;2023-02-12T12:12:40;11.70;94.30
48604;DHT22;32708;51.212;6.788;2023-02-12T12:15:30;11.50;96.10
48604;DHT22;32708;51.212;6.788;2023-02-12T12:18:26;11.20;99.90
48604;DHT22;32708;51.212;6.788;2023-02-12T12:24:29;11.50;98.80
48604;DHT22;32708;51.212;6.788;2023-02-12T12:27:09;11.90;98.60
48604;DHT22;32708;51.212;6.788;2023-02-12T12:29:50;11.60;94.70
48604;DHT22;32708;51.212;6.788;2023-02-12T12:32:21;11.90;91.60
48604;DHT22;32708;51.212;6.788;2023-02-12T12:34:48;11.50;95.10
48604;DHT22;32708;51.212;6.788;2023-02-12T12:58:52;11.80;90.80
48604;DHT22;32708;51.212;6.788;2023-02-12T13:07:49;11.00;99.10
48604;DHT22;32708;51.212;6.788;2023-02-12T13:15:51;11.70;92.00
48604;DHT22;32708;51.212;6.788;2023-02-12T13:21:17;11.60;88.40
48604;DHT22;32708;51.212;6.788;2023-02-12T13:26:55;11.50;87.70
48604;DHT22;32708;51.212;6.788;2023-02-12T13:29:35;11.70;85.00
48604;DHT22;32708;51.212;6.788;2023-02-12T13:34:34;12.00;78.40
48604;DHT22;32708;51.212;6.788;2023-02-12T13:37:04;12.00;70.10
48604;DHT22;32708;51.212;6.788;2023-02-12T13:39:36;11.90;80.40
48604;DHT22;32708;51.212;6.788;2023-02-12T13:44:59;11.70;87.60
48604;DHT22;32708;51.212;6.788;2023-02-12T13:53:11;11.30;96.50
48604;DHT22;32708;51.212;6.788;2023-02-12T14:01:02;11.80;86.00
48604;DHT22;32708;51.212;6.788;2023-02-12T14:03:30;11.90;80.80
48604;DHT22;32708;51.212;6.788;2023-02-12T14:06:26;11.80;83.10
48604;DHT22;32708;51.212;6.788;2023-02-12T14:09:08;11.40;94.40
48604;DHT22;32708;51.212;6.788;2023-02-12T14:11:48;11.60;93.40
48604;DHT22;32708;51.212;6.788;2023-02-12T14:14:28;11.70;94.20
48604;DHT22;32708;51.212;6.788;2023-02-12T14:16:56;11.60;91.60
48604;DHT22;32708;51.212;6.788;2023-02-12T14:19:41;11.50;94.80
48604;DHT22;32708;51.212;6.788;2023-02-12T14:24:55;11.40;95.90
48604;DHT22;32708;51.212;6.788;2023-02-12T14:37:54;11.60;95.40
48604;DHT22;32708;51.212;6.788;2023-02-12T14:40:43;11.60;93.90
48604;DHT22;32708;51.212;6.788;2023-02-12T14:49:00;11.20;99.90
48604;DHT22;32708;51.212;6.788;2023-02-12T14:51:40;11.30;99.90
48604;DHT22;32708;51.212;6.788;2023-02-12T14:54:53;11.40;99.90
48604;DHT22;32708;51.212;6.788;2023-02-12T14:57:39;11.30;99.90
48604;DHT22;32708;51.212;6.788;2023-02-12T15:00:24;11.40;98.50
48604;DHT22;32708;51.212;6.788;2023-02-12T15:05:42;11.30;98.60
48604;DHT22;32708;51.212;6.788;2023-02-12T15:14:21;11.20;99.90
48604;DHT22;32708;51.212;6.788;2023-02-12T15:17:10;11.10;99.90
48604;DHT22;32708;51.212;6.788;2023-02-12T15:19:58;11.30;99.90
48604;DHT22;32708;51.212;6.788;2023-02-12T15:22:34;11.10;99.90
48604;DHT22;32708;51.212;6.788;2023-02-12T15:25:25;11.40;99.90
48604;DHT22;32708;51.212;6.788;2023-02-12T15:28:18;11.50;98.70
48604;DHT22;32708;51.212;6.788;2023-02-12T15:30:46;11.40;99.90
48604;DHT22;32708;51.212;6.788;2023-02-12T15:33:28;11.50;98.70
48604;DHT22;32708;51.212;6.788;2023-02-12T15:35:57;11.50;98.60
48604;DHT22;32708;51.212;6.788;2023-02-12T15:38:33;11.50;98.60
48604;DHT22;32708;51.212;6.788;2023-02-12T15:41:04;11.40;99.90
48604;DHT22;32708;51.212;6.788;2023-02-12T15:43:34;11.40;99.90
48604;DHT22;32708;51.212;6.788;2023-02-12T15:46:05;11.60;95.80
48604;DHT22;32708;51.212;6.788;2023-02-12T15:48:39;11.50;97.80
48604;DHT22;32708;51.212;6.788;2023-02-12T15:53:41;11.30;99.80
48604;DHT22;32708;51.212;6.788;2023-02-12T15:56:20;11.50;99.30
48604;DHT22;32708;51.212;6.788;2023-02-12T16:01:26;11.50;97.30
48604;DHT22;32708;51.212;6.788;2023-02-12T16:04:02;11.20;99.90
48604;DHT22;32708;51.212;6.788;2023-02-12T16:06:34;11.50;98.50
48604;DHT22;32708;51.212;6.788;2023-02-12T16:09:16;11.20;99.90
48604;DHT22;32708;51.212;6.788;2023-02-12T16:11:48;11.20;99.90
48604;DHT22;32708;51.212;6.788;2023-02-12T16:16:55;11.20;99.90
48604;DHT22;32708;51.212;6.788;2023-02-12T16:19:26;11.30;99.90
48604;DHT22;32708;51.212;6.788;2023-02-12T16:22:19;11.00;99.90
48604;DHT22;32708;51.212;6.788;2023-02-12T16:25:00;11.10;99.90
48604;DHT22;32708;51.212;6.788;2023-02-12T16:27:37;11.00;99.90
48604;DHT22;32708;51.212;6.788;2023-02-12T16:30:43;11.10;99.90
48604;DHT22;32708;51.212;6.788;2023-02-12T16:33:34;11.10;99.90
48604;DHT22;32708;51.212;6.788;2023-02-12T16:38:54;11.20;99.90
48604;DHT22;32708;51.212;6.788;2023-02-12T16:41:27;11.10;99.90
48604;DHT22;32708;51.212;6.788;2023-02-12T16:46:27;11.00;99.90
48604;DHT22;32708;51.212;6.788;2023-02-12T16:49:01;10.80;99.90
48604;DHT22;32708;51.212;6.788;2023-02-12T16:51:33;11.10;99.90
48604;DHT22;32708;51.212;6.788;2023-02-12T16:54:02;10.90;99.90
48604;DHT22;32708;51.212;6.788;2023-02-12T16:56:40;10.80;99.90
48604;DHT22;32708;51.212;6.788;2023-02-12T16:59:16;10.90;99.90
48604;DHT22;32708;51.212;6.788;2023-02-12T17:02:05;10.90;99.90
48604;DHT22;32708;51.212;6.788;2023-02-12T17:04:42;10.60;99.90
48604;DHT22;32708;51.212;6.788;2023-02-12T17:07:25;10.80;99.90
48604;DHT22;32708;51.212;6.788;2023-02-12T17:10:00;10.90;99.90
48604;DHT22;32708;51.212;6.788;2023-02-12T17:12:30;10.90;99.90
48604;DHT22;32708;51.212;6.788;2023-02-12T17:14:59;11.00;99.90
48604;DHT22;32708;51.212;6.788;2023-02-12T17:17:40;11.10;99.90
48604;DHT22;32708;51.212;6.788;2023-02-12T17:20:13;10.90;99.90
48604;DHT22;32708;51.212;6.788;2023-02-12T17:22:54;11.00;99.90
48604;DHT22;32708;51.212;6.788;2023-02-12T17:25:27;10.70;99.90
48604;DHT22;32708;51.212;6.788;2023-02-12T17:28:03;10.70;99.90
48604;DHT22;32708;51.212;6.788;2023-02-12T17:30:33;10.90;99.90
48604;DHT22;32708;51.212;6.788;2023-02-12T17:33:02;10.70;99.90
48604;DHT22;32708;51.212;6.788;2023-02-12T17:35:29;10.70;99.90
48604;DHT22;32708;51.212;6.788;2023-02-12T17:37:55;11.00;99.90
48604;DHT22;32708;51.212;6.788;2023-02-12T17:40:21;10.90;99.90
48604;DHT22;32708;51.212;6.788;2023-02-12T17:42:48;11.00;99.90
48604;DHT22;32708;51.212;6.788;2023-02-12T17:45:14;11.00;99.90
48604;DHT22;32708;51.212;6.788;2023-02-12T17:47:40;11.10;99.90
48604;DHT22;32708;51.212;6.788;2023-02-12T17:50:10;11.00;99.90
48604;DHT22;32708;51.212;6.788;2023-02-12T17:52:37;10.90;99.90
48604;DHT22;32708;51.212;6.788;2023-02-12T17:55:04;10.90;99.90
48604;DHT22;32708;51.212;6.788;2023-02-12T17:57:30;10.80;99.90
48604;DHT22;32708;51.212;6.788;2023-02-12T17:59:57;10.90;99.90
48604;DHT22;32708;51.212;6.788;2023-02-12T18:02:26;10.80;99.90
48604;DHT22;32708;51.212;6.788;2023-02-12T18:04:52;10.70;99.90
48604;DHT22;32708;51.212;6.788;2023-02-12T18:07:18;10.80;99.90
48604;DHT22;32708;51.212;6.788;2023-02-12T18:09:50;10.80;99.90
48604;DHT22;32708;51.212;6.788;2023-02-12T18:12:19;10.80;99.90
48604;DHT22;32708;51.212;6.788;2023-02-12T18:14:45;10.80;99.90
48604;DHT22;32708;51.212;6.788;2023-02-12T18:25:14;10.60;99.90
48604;DHT22;32708;51.212;6.788;2023-02-12T18:27:41;10.50;99.90
48604;DHT22;32708;51.212;6.788;2023-02-12T18:30:08;10.50;99.90
48604;DHT22;32708;51.212;6.788;2023-02-12T18:32:35;10.50;99.90
48604;DHT22;32708;51.212;6.788;2023-02-12T18:35:05;10.50;99.90
48604;DHT22;32708;51.212;6.788;2023-02-12T18:37:40;10.50;99.90
48604;DHT22;32708;51.212;6.788;2023-02-12T18:40:11;10.70;99.90
48604;DHT22;32708;51.212;6.788;2023-02-12T18:42:36;10.80;99.90
48604;DHT22;32708;51.212;6.788;2023-02-12T18:45:03;10.60;99.90
48604;DHT22;32708;51.212;6.788;2023-02-12T18:47:32;10.60;99.90
48604;DHT22;32708;51.212;6.788;2023-02-12T18:49:59;10.70;99.90
48604;DHT22;32708;51.212;6.788;2023-02-12T18:52:25;10.70;99.90
48604;DHT22;32708;51.212;6.788;2023-02-12T18:54:51;10.70;99.90
48604;DHT22;32708;51.212;6.788;2023-02-12T18:57:21;10.50;99.90
48604;DHT22;32708;51.212;6.788;2023-02-12T18:59:47;10.50;99.90
48604;DHT22;32708;51.212;6.788;2023-02-12T19:02:13;10.60;99.90
48604;DHT22;32708;51.212;6.788;2023-02-12T19:04:40;10.40;99.90
48604;DHT22;32708;51.212;6.788;2023-02-12T19:07:09;10.20;99.90